Terminal Aerodrome Forecast
Issued by NWS

Home | Current Version | Previous Version | Text Only | Print | Product List | Glossary On
Versions: 1 2 3 4 5 6 7 8 9 10 11 12 13 14 15 16 17 18 19 20 21 22 23 24 25
000
FTUS41 KOKX 271141
TAFHPN
TAF
KHPN 271141Z 2712/2812 33007KT 6SM -SHRA BR BKN009
     FM271400 33007KT P6SM SCT015 SCT030 BKN080
      TEMPO 2714/2715 BKN030
     FM271800 33007KT P6SM BKN035 BKN120
     FM280600 33012G20KT P6SM SCT050 BKN150
      AMD NOT SKED=

USA.gov is the U.S. government's official web portal to all federal, state and local government web resources and services.